Coburn, West Virginia
Current Conditions -  °F | °C
As of 12:53 AM on Wednesday 26 Nov 2014 (Local Time) from KMGW Reporting Station
Clear Clear  
Wind Chill: 35°   Ceiling: Unl
Heat Index: 35°   Visibility: 10mi
Dew Point: 24°   Wind: 0mph
Humidity: 64%   Direction: NA
Pressure: 30.17"   Gusts: NA
Location:  39.6697°N, 80.398°W
Report Text: KMGW 260553Z AUTO 00000KT 10SM CLR 02/M04 A3017 RMK AO2 SLP222 T00171044 10072 20017 58001 TSNO
Loading
Personal Weather Stations






























Interactive Weather Map New forecast layout! Learn more

10-Day Weather Forecast

Advertisements
Track Severe Weather on mobile